Time;durP1;ratioP1;P1;durP2;ratioP2;P2;SDS_P1;SDS_P2;PMS_P1;PMS_P2;Temp;Humidity;BMP_temperature;BMP_pressure;BME280_temperature;BME280_humidity;BME280_pressure;Samples;Min_cycle;Max_cycle;Signal;HPM_P1;HPM_P2
2021/07/27 00:00:37;;;;;;;14.38;9.38;;;18.30;87.70;;;;;;5052633;28;20036;-50
2021/07/27 00:03:04;;;;;;;10.45;7.90;;;18.30;87.30;;;;;;5052800;28;20017;-50
2021/07/27 00:05:30;;;;;;;12.15;8.52;;;18.40;87.10;;;;;;5052458;28;20032;-49
2021/07/27 00:07:56;;;;;;;14.93;8.40;;;18.40;87.50;;;;;;5052761;28;20025;-49
2021/07/27 00:10:27;;;;;;;12.45;7.38;;;18.30;87.70;;;;;;5052486;28;20025;-47
2021/07/27 00:12:53;;;;;;;18.77;7.97;;;18.40;87.20;;;;;;5052691;28;20053;-48
2021/07/27 00:15:19;;;;;;;11.20;7.30;;;18.40;87.00;;;;;;5052418;28;20479;-47
2021/07/27 00:17:44;;;;;;;11.15;7.45;;;18.30;87.10;;;;;;5052412;28;20021;-48
2021/07/27 00:20:10;;;;;;;15.38;8.40;;;18.40;87.40;;;;;;5052331;28;20024;-49
2021/07/27 00:22:40;;;;;;;12.43;8.32;;;18.40;87.30;;;;;;5052367;28;20033;-47
2021/07/27 00:25:10;;;;;;;15.38;8.20;;;18.50;87.30;;;;;;5053295;28;20043;-49
2021/07/27 00:27:36;;;;;;;9.52;7.10;;;18.50;87.30;;;;;;5052369;28;20128;-48
2021/07/27 00:30:06;;;;;;;15.15;8.43;;;18.40;87.20;;;;;;5053958;28;20129;-49
2021/07/27 00:32:32;;;;;;;12.10;8.93;;;18.30;87.90;;;;;;5056061;28;20029;-49
2021/07/27 00:34:57;;;;;;;12.32;8.05;;;18.30;87.70;;;;;;5054860;28;20366;-48
2021/07/27 00:37:28;;;;;;;12.25;8.05;;;18.20;88.20;;;;;;5056193;28;20534;-49
2021/07/27 00:39:55;;;;;;;14.43;8.48;;;18.30;87.80;;;;;;5055974;28;20025;-49
2021/07/27 00:42:20;;;;;;;15.10;7.90;;;18.30;87.50;;;;;;5055989;28;20032;-50
2021/07/27 00:44:46;;;;;;;13.75;8.40;;;18.30;87.80;;;;;;5054511;28;20021;-47
2021/07/27 00:47:12;;;;;;;13.18;8.68;;;18.10;88.10;;;;;;5055791;28;20055;-48
2021/07/27 00:49:38;;;;;;;10.10;7.60;;;18.10;88.90;;;;;;5055693;28;20444;-51
2021/07/27 00:52:05;;;;;;;17.25;9.23;;;18.20;88.60;;;;;;5055574;28;20078;-51
2021/07/27 00:54:30;;;;;;;13.93;8.95;;;18.30;88.00;;;;;;5055939;28;20055;-48
2021/07/27 00:56:56;;;;;;;17.40;9.63;;;18.20;88.70;;;;;;5055634;28;20029;-47
2021/07/27 00:59:22;;;;;;;11.25;8.50;;;18.30;88.30;;;;;;5055826;28;20090;-49
2021/07/27 01:01:48;;;;;;;13.23;9.25;;;18.30;88.00;;;;;;5055505;28;20033;-49
2021/07/27 01:04:14;;;;;;;13.93;8.98;;;18.30;88.30;;;;;;5053846;28;20036;-52
2021/07/27 01:06:39;;;;;;;13.52;9.93;;;18.30;88.30;;;;;;5055119;28;20144;-50
2021/07/27 01:09:05;;;;;;;9.55;8.30;;;18.30;88.30;;;;;;5055367;28;20031;-51
2021/07/27 01:11:30;;;;;;;11.73;8.32;;;18.30;88.50;;;;;;5055016;28;20112;-51
2021/07/27 01:13:56;;;;;;;14.35;9.02;;;18.30;88.30;;;;;;5055112;28;20408;-51
2021/07/27 01:16:28;;;;;;;16.35;8.80;;;18.20;89.10;;;;;;5055276;28;20025;-47
2021/07/27 01:43:21;;;;;;;17.88;12.48;;;18.10;89.50;;;;;;5054878;28;20025;-49
2021/07/27 01:45:48;;;;;;;21.95;12.75;;;18.10;89.60;;;;;;5054927;28;20039;-47
2021/07/27 01:48:16;;;;;;;17.55;12.55;;;18.10;89.60;;;;;;5055241;28;20372;-53
2021/07/27 01:50:42;;;;;;;18.63;11.30;;;18.10;89.70;;;;;;5054586;28;20463;-47
2021/07/27 01:53:09;;;;;;;17.45;10.70;;;18.00;90.00;;;;;;5054834;28;20478;-50
2021/07/27 01:55:35;;;;;;;17.88;9.52;;;18.00;89.80;;;;;;5054504;28;20017;-48
2021/07/27 01:58:01;;;;;;;29.08;14.50;;;17.90;90.10;;;;;;5036702;28;20028;-49
2021/07/27 02:00:27;;;;;;;16.33;11.73;;;18.10;90.10;;;;;;5054659;28;20449;-47
2021/07/27 02:02:52;;;;;;;17.92;12.05;;;18.10;89.80;;;;;;5054646;28;20381;-50
2021/07/27 02:05:18;;;;;;;16.95;11.30;;;18.20;89.70;;;;;;5054425;28;20021;-51
2021/07/27 02:07:48;;;;;;;21.08;12.02;;;18.20;89.50;;;;;;5054373;28;20021;-48
2021/07/27 02:10:16;;;;;;;17.65;11.07;;;18.10;89.60;;;;;;5055078;28;20376;-52
2021/07/27 02:12:50;;;;;;;18.42;11.88;;;18.10;89.90;;;;;;5055438;28;20021;-51
2021/07/27 02:15:17;;;;;;;20.67;12.95;;;18.00;89.90;;;;;;5054974;28;20158;-49
2021/07/27 02:17:44;;;;;;;21.13;12.73;;;17.80;90.90;;;;;;5054878;28;20116;-48
2021/07/27 02:20:10;;;;;;;20.55;13.85;;;18.00;90.60;;;;;;5054670;28;20385;-47
2021/07/27 02:22:37;;;;;;;22.13;13.95;;;17.90;90.40;;;;;;5054440;28;20523;-48
2021/07/27 02:25:05;;;;;;;26.02;14.38;;;17.90;90.50;;;;;;5054086;28;20021;-49
2021/07/27 02:27:31;;;;;;;21.20;14.90;;;18.00;90.70;;;;;;5053872;28;20032;-51
2021/07/27 02:30:07;;;;;;;26.30;16.10;;;17.90;90.40;;;;;;5053759;28;20053;-50
2021/07/27 02:32:33;;;;;;;26.92;15.93;;;17.80;90.80;;;;;;5053776;28;20048;-52
2021/07/27 02:34:59;;;;;;;32.40;19.20;;;17.80;91.10;;;;;;5053872;28;20025;-47
2021/07/27 02:37:24;;;;;;;29.25;18.88;;;17.80;91.00;;;;;;5053784;28;20044;-51
2021/07/27 02:39:50;;;;;;;29.48;19.38;;;17.80;90.90;;;;;;5053741;28;20046;-48
2021/07/27 02:42:16;;;;;;;32.03;20.15;;;17.80;90.80;;;;;;5053714;28;20056;-47
2021/07/27 02:44:41;;;;;;;33.63;22.73;;;17.80;90.90;;;;;;5053623;28;20422;-46
2021/07/27 02:47:08;;;;;;;30.48;21.92;;;17.80;91.00;;;;;;5052376;28;20052;-50
2021/07/27 02:49:33;;;;;;;32.80;20.85;;;17.70;91.00;;;;;;5053817;28;20090;-47
2021/07/27 02:51:59;;;;;;;35.15;21.55;;;17.70;91.50;;;;;;5052865;28;20533;-48
2021/07/27 02:54:24;;;;;;;32.05;22.08;;;17.70;91.00;;;;;;5053792;28;20035;-47
2021/07/27 02:56:50;;;;;;;36.50;22.35;;;17.70;91.30;;;;;;5053364;28;20017;-48
2021/07/27 02:59:16;;;;;;;38.90;22.65;;;17.70;91.30;;;;;;5053897;28;20121;-47
2021/07/27 03:01:41;;;;;;;38.88;24.60;;;17.80;91.00;;;;;;5053309;28;20493;-48
2021/07/27 03:04:07;;;;;;;36.42;22.60;;;17.90;90.90;;;;;;5053203;28;20060;-47
2021/07/27 03:06:33;;;;;;;38.50;24.40;;;17.80;90.70;;;;;;5053445;28;20112;-46
2021/07/27 03:11:24;;;;;;;37.75;24.33;;;17.80;90.90;;;;;;5053368;28;20440;-50
2021/07/27 03:13:52;;;;;;;40.63;25.65;;;17.80;91.00;;;;;;5052569;28;20357;-47
2021/07/27 03:16:22;;;;;;;38.83;24.05;;;17.80;90.50;;;;;;5053264;28;20106;-52
2021/07/27 03:18:51;;;;;;;41.72;24.80;;;17.80;90.70;;;;;;5053300;28;20052;-50
2021/07/27 03:21:18;;;;;;;38.15;24.77;;;17.90;90.30;;;;;;5053179;28;20037;-47
2021/07/27 03:23:45;;;;;;;40.72;25.77;;;18.00;90.10;;;;;;5052923;28;20123;-47
2021/07/27 03:26:11;;;;;;;41.40;25.15;;;17.80;90.50;;;;;;5052818;28;20108;-46
2021/07/27 03:28:37;;;;;;;40.10;24.38;;;17.80;90.40;;;;;;5052992;28;20497;-47
2021/07/27 03:31:02;;;;;;;37.80;24.90;;;17.90;90.20;;;;;;5052614;28;20041;-47
2021/07/27 03:33:28;;;;;;;41.38;24.17;;;17.90;90.40;;;;;;5053603;28;20355;-47
2021/07/27 03:35:53;;;;;;;43.85;26.00;;;18.00;90.00;;;;;;5052876;28;20055;-47
2021/07/27 03:38:19;;;;;;;41.00;25.75;;;18.00;90.00;;;;;;5052789;28;20033;-48
2021/07/27 03:40:45;;;;;;;38.47;24.27;;;17.80;90.20;;;;;;5053034;28;20027;-50
2021/07/27 03:43:10;;;;;;;38.38;24.75;;;17.80;90.50;;;;;;5052964;28;20033;-46
2021/07/27 03:45:36;;;;;;;37.35;23.90;;;18.00;90.20;;;;;;5052953;28;20469;-48
2021/07/27 03:48:02;;;;;;;40.35;24.85;;;18.00;89.80;;;;;;5052677;28;20021;-48
2021/07/27 03:50:27;;;;;;;34.53;22.80;;;17.90;90.20;;;;;;5052786;28;20021;-47
2021/07/27 03:52:53;;;;;;;37.58;25.13;;;17.80;90.20;;;;;;5052677;28;20036;-46
2021/07/27 03:55:19;;;;;;;41.20;25.80;;;17.80;90.30;;;;;;5052657;28;20024;-46
2021/07/27 03:57:44;;;;;;;40.70;26.00;;;17.80;90.40;;;;;;5052618;28;20112;-48
2021/07/27 04:00:10;;;;;;;41.10;26.00;;;17.80;90.50;;;;;;5052849;28;20029;-49
2021/07/27 04:02:36;;;;;;;42.75;25.02;;;17.70;90.60;;;;;;5052583;28;20119;-48
2021/07/27 04:05:04;;;;;;;39.58;26.80;;;17.70;90.90;;;;;;5056286;28;20099;-50
2021/07/27 04:07:30;;;;;;;43.92;27.17;;;17.70;90.90;;;;;;5056898;28;20074;-51
2021/07/27 04:10:00;;;;;;;52.75;27.20;;;17.70;91.00;;;;;;5056563;28;20024;-48
2021/07/27 04:12:25;;;;;;;43.33;26.98;;;17.60;90.90;;;;;;5056508;28;20421;-48
2021/07/27 04:14:51;;;;;;;46.38;29.30;;;17.70;91.10;;;;;;5056526;28;20028;-49
2021/07/27 04:17:20;;;;;;;47.83;27.80;;;17.70;90.90;;;;;;5056422;28;20096;-48
2021/07/27 04:19:49;;;;;;;48.60;28.45;;;17.70;91.00;;;;;;5056331;28;20025;-49
2021/07/27 04:22:15;;;;;;;51.30;28.48;;;17.60;90.70;;;;;;5056320;28;20086;-47
2021/07/27 04:24:41;;;;;;;48.83;29.50;;;17.70;90.90;;;;;;5056532;28;20432;-47
2021/07/27 04:27:07;;;;;;;55.78;31.38;;;17.60;90.90;;;;;;5056508;28;20036;-46
2021/07/27 04:29:34;;;;;;;57.33;30.23;;;17.60;91.10;;;;;;5055958;28;20380;-47
2021/07/27 04:31:59;;;;;;;47.38;28.23;;;17.70;90.80;;;;;;5056033;28;20025;-47
2021/07/27 04:34:25;;;;;;;46.10;28.52;;;17.80;90.50;;;;;;5056267;28;20068;-47
2021/07/27 04:36:51;;;;;;;46.42;26.67;;;17.80;90.40;;;;;;5055710;28;20025;-47
2021/07/27 04:39:17;;;;;;;46.85;28.17;;;17.90;90.10;;;;;;5055647;28;20017;-46
2021/07/27 04:41:43;;;;;;;51.08;30.63;;;17.90;89.90;;;;;;5056155;28;20436;-48
2021/07/27 04:44:09;;;;;;;47.88;28.73;;;18.00;89.60;;;;;;5055534;28;20041;-47
2021/07/27 04:46:35;;;;;;;49.50;26.83;;;18.00;89.60;;;;;;5056077;28;20029;-48
2021/07/27 04:49:01;;;;;;;46.25;27.98;;;18.10;89.30;;;;;;5056529;28;20021;-47
2021/07/27 04:51:29;;;;;;;42.80;28.38;;;18.10;89.10;;;;;;5055988;28;20028;-47
2021/07/27 04:53:58;;;;;;;49.65;26.35;;;18.10;89.20;;;;;;5055984;28;20017;-49
2021/07/27 04:56:25;;;;;;;41.65;27.67;;;18.20;89.00;;;;;;5056155;28;20473;-47
2021/07/27 04:58:51;;;;;;;42.88;25.45;;;18.30;88.90;;;;;;5055381;28;20071;-48
2021/07/27 05:01:17;;;;;;;41.38;24.50;;;18.30;88.50;;;;;;5055833;28;20381;-51
2021/07/27 05:03:43;;;;;;;38.47;24.67;;;18.30;88.40;;;;;;5055770;28;20023;-49
2021/07/27 05:06:09;;;;;;;38.10;23.95;;;18.30;88.50;;;;;;5055802;28;20036;-48
2021/07/27 05:08:35;;;;;;;38.67;25.67;;;18.30;88.60;;;;;;5055988;28;20167;-47
2021/07/27 05:11:01;;;;;;;40.88;24.35;;;18.30;88.70;;;;;;5055607;28;20052;-51
2021/07/27 05:13:27;;;;;;;46.40;24.83;;;18.40;88.60;;;;;;5055597;28;20021;-47
2021/07/27 05:15:53;;;;;;;37.95;23.58;;;18.60;87.90;;;;;;5054410;28;20024;-50
2021/07/27 05:18:19;;;;;;;34.80;22.83;;;18.80;87.00;;;;;;5055153;28;20538;-47
2021/07/27 05:20:45;;;;;;;36.03;23.27;;;18.60;87.50;;;;;;5055087;28;20028;-48
2021/07/27 05:23:11;;;;;;;41.20;25.23;;;18.60;88.00;;;;;;5055189;28;20096;-48
2021/07/27 05:25:39;;;;;;;36.92;23.48;;;18.70;87.30;;;;;;5055334;28;20048;-47
2021/07/27 05:28:07;;;;;;;37.05;23.05;;;18.70;87.30;;;;;;5055242;28;20029;-51
2021/07/27 05:30:32;;;;;;;34.63;22.65;;;18.90;86.60;;;;;;5053272;28;20045;-48
2021/07/27 05:33:01;;;;;;;34.28;21.88;;;19.30;85.30;;;;;;5054771;28;20100;-46
2021/07/27 05:35:26;;;;;;;35.90;21.30;;;18.90;86.50;;;;;;5054752;28;20116;-49
2021/07/27 05:37:52;;;;;;;34.78;21.08;;;19.10;86.10;;;;;;5054974;28;20155;-47
2021/07/27 05:40:18;;;;;;;30.80;21.80;;;19.10;86.00;;;;;;5053701;28;20025;-49
2021/07/27 05:42:43;;;;;;;32.22;21.17;;;19.30;85.60;;;;;;5054892;28;20064;-47
2021/07/27 05:45:09;;;;;;;31.73;22.92;;;19.20;85.40;;;;;;5054508;28;20047;-47
2021/07/27 05:47:35;;;;;;;37.03;23.30;;;19.20;85.50;;;;;;5054769;28;20438;-49
2021/07/27 05:50:01;;;;;;;33.42;21.98;;;19.10;85.50;;;;;;5054703;28;20025;-52
2021/07/27 05:52:26;;;;;;;37.47;20.98;;;19.10;85.70;;;;;;5054616;28;20032;-50
2021/07/27 05:54:52;;;;;;;36.17;24.02;;;19.10;85.80;;;;;;5054523;28;20021;-48
2021/07/27 05:57:18;;;;;;;41.22;23.13;;;18.90;86.10;;;;;;5054683;28;20025;-51
2021/07/27 05:59:43;;;;;;;32.65;23.55;;;18.90;86.10;;;;;;5054269;28;20028;-52
2021/07/27 06:02:11;;;;;;;42.33;24.13;;;18.90;86.50;;;;;;5054305;28;20068;-48
2021/07/27 06:04:37;;;;;;;32.72;22.08;;;19.00;86.10;;;;;;5054334;28;20025;-46
2021/07/27 06:07:03;;;;;;;33.90;20.75;;;18.90;86.80;;;;;;5054226;28;20453;-47
2021/07/27 06:09:29;;;;;;;29.13;19.63;;;19.00;86.90;;;;;;5054034;28;20028;-49
2021/07/27 06:11:54;;;;;;;30.70;19.20;;;19.30;86.10;;;;;;5053882;28;20029;-48
2021/07/27 06:14:20;;;;;;;29.83;19.15;;;19.50;84.60;;;;;;5054813;28;20388;-47
2021/07/27 06:16:46;;;;;;;27.35;17.20;;;19.80;83.50;;;;;;5054050;28;20040;-52
2021/07/27 06:19:12;;;;;;;23.88;18.08;;;19.90;83.00;;;;;;5054625;28;20025;-50
2021/07/27 06:21:39;;;;;;;22.75;18.38;;;20.00;82.60;;;;;;5054254;28;20074;-48
2021/07/27 06:24:09;;;;;;;25.08;19.20;;;20.20;82.10;;;;;;5054314;28;20025;-47
2021/07/27 06:26:36;;;;;;;24.77;18.58;;;20.00;82.30;;;;;;5054732;28;20025;-48
2021/07/27 06:29:04;;;;;;;26.80;19.73;;;20.10;81.50;;;;;;5053967;28;20083;-49
2021/07/27 06:31:30;;;;;;;28.35;17.00;;;20.00;81.40;;;;;;5053892;28;20469;-51
2021/07/27 06:33:56;;;;;;;25.85;18.05;;;19.80;82.70;;;;;;5054750;28;20033;-49
2021/07/27 06:36:21;;;;;;;23.73;16.65;;;19.80;82.70;;;;;;5055139;28;20025;-47
2021/07/27 06:38:47;;;;;;;25.35;16.17;;;20.10;81.80;;;;;;5055496;28;20422;-51
2021/07/27 06:41:13;;;;;;;28.50;18.23;;;19.80;82.60;;;;;;5054027;28;20029;-48
2021/07/27 06:43:40;;;;;;;23.92;17.35;;;19.80;82.60;;;;;;5054797;28;20033;-49
2021/07/27 06:46:07;;;;;;;24.40;18.35;;;20.00;81.90;;;;;;5054062;28;20115;-48
2021/07/27 06:48:33;;;;;;;40.15;17.90;;;19.90;82.00;;;;;;5054852;28;20029;-50
2021/07/27 06:51:08;;;;;;;27.13;18.83;;;19.80;82.80;;;;;;5054564;28;20536;-47
2021/07/27 06:53:33;;;;;;;27.48;19.83;;;20.00;82.30;;;;;;5053120;28;20465;-47
2021/07/27 06:55:59;;;;;;;28.52;18.77;;;20.00;81.70;;;;;;5053370;28;20021;-50
2021/07/27 06:58:25;;;;;;;22.83;17.48;;;20.30;80.50;;;;;;5051998;28;20051;-48
2021/07/27 07:00:50;;;;;;;26.02;16.85;;;20.50;79.90;;;;;;5052416;28;20100;-49
2021/07/27 07:03:16;;;;;;;25.15;16.90;;;20.60;80.40;;;;;;5052586;28;20025;-49
2021/07/27 07:05:42;;;;;;;22.83;16.15;;;20.80;78.60;;;;;;5052906;28;20025;-51
2021/07/27 07:08:08;;;;;;;26.73;16.75;;;20.80;78.10;;;;;;5053132;28;20032;-48
2021/07/27 07:10:34;;;;;;;23.48;17.50;;;20.80;77.70;;;;;;5052704;28;20104;-48
2021/07/27 07:12:59;;;;;;;24.25;17.48;;;20.70;78.80;;;;;;5053165;28;20461;-50
2021/07/27 07:15:25;;;;;;;25.60;17.73;;;20.80;78.10;;;;;;5053159;28;20024;-51
2021/07/27 07:17:51;;;;;;;28.25;19.38;;;20.60;79.00;;;;;;5052777;28;20025;-49
2021/07/27 07:20:17;;;;;;;24.20;17.55;;;20.50;78.70;;;;;;5052916;28;20492;-46
2021/07/27 07:22:42;;;;;;;26.75;19.48;;;20.50;79.00;;;;;;5051886;28;20025;-48
2021/07/27 07:25:08;;;;;;;27.38;18.48;;;20.50;78.30;;;;;;5052902;28;20036;-49
2021/07/27 07:27:34;;;;;;;28.40;19.88;;;20.70;77.80;;;;;;5051632;28;20048;-48
2021/07/27 07:30:00;;;;;;;24.95;16.48;;;20.90;76.90;;;;;;5051117;28;20056;-47
2021/07/27 07:32:26;;;;;;;28.05;17.33;;;20.70;78.00;;;;;;5051448;28;20108;-48
2021/07/27 07:34:52;;;;;;;25.23;15.93;;;20.90;77.80;;;;;;5052658;28;20101;-50
2021/07/27 07:37:18;;;;;;;29.67;17.17;;;21.20;76.30;;;;;;5052270;28;20398;-51
2021/07/27 07:39:43;;;;;;;19.85;15.75;;;21.40;76.10;;;;;;5052649;28;20026;-49
2021/07/27 07:42:09;;;;;;;26.13;17.77;;;21.30;76.80;;;;;;5052447;28;20031;-48
2021/07/27 07:44:36;;;;;;;20.08;15.88;;;21.50;74.80;;;;;;5052526;28;20471;-53
2021/07/27 07:47:02;;;;;;;21.98;16.05;;;21.70;73.80;;;;;;5053243;28;20025;-46
2021/07/27 07:49:29;;;;;;;20.33;14.43;;;21.70;73.20;;;;;;5052529;28;20029;-51
2021/07/27 07:51:56;;;;;;;20.17;14.55;;;21.30;74.90;;;;;;5052484;28;20109;-48
2021/07/27 07:54:24;;;;;;;20.67;13.93;;;21.60;74.20;;;;;;5052724;28;20032;-50
2021/07/27 07:56:50;;;;;;;19.50;13.77;;;21.70;74.30;;;;;;5053126;28;20025;-48
2021/07/27 07:59:16;;;;;;;20.58;15.07;;;21.90;72.10;;;;;;5052470;28;20074;-51
2021/07/27 08:01:45;;;;;;;19.35;14.63;;;22.10;70.70;;;;;;5052374;28;20469;-50
2021/07/27 08:04:13;;;;;;;20.60;14.75;;;22.00;70.30;;;;;;5052698;28;20028;-48
2021/07/27 08:06:39;;;;;;;20.30;13.18;;;21.90;71.40;;;;;;5052793;28;20025;-49
2021/07/27 08:09:05;;;;;;;17.75;13.25;;;22.30;69.40;;;;;;5052189;28;20033;-49
2021/07/27 08:11:31;;;;;;;13.73;11.63;;;22.40;68.80;;;;;;5051871;28;20094;-50
2021/07/27 08:13:58;;;;;;;25.38;11.82;;;22.20;69.60;;;;;;5051870;28;20025;-46
2021/07/27 08:16:24;;;;;;;19.50;11.93;;;22.70;69.10;;;;;;5052351;28;20021;-51
2021/07/27 08:18:50;;;;;;;15.73;12.15;;;22.80;67.50;;;;;;5052149;28;20021;-49
2021/07/27 08:21:15;;;;;;;21.30;13.48;;;23.20;66.80;;;;;;5052376;28;20090;-49
2021/07/27 08:23:45;;;;;;;16.15;10.73;;;23.40;64.80;;;;;;5050742;28;20071;-37
2021/07/27 08:26:11;;;;;;;;;;;23.70;64.70;;;;;;5050916;28;20397;-38
2021/07/27 08:28:37;;;;;;;14.10;10.60;;;23.70;65.10;;;;;;5052392;28;19905;-38
2021/07/27 08:31:03;;;;;;;16.77;11.23;;;23.90;63.60;;;;;;5050330;28;20473;-37
2021/07/27 08:33:30;;;;;;;18.52;11.70;;;23.80;63.50;;;;;;5051878;28;20025;-37
2021/07/27 08:35:57;;;;;;;12.75;9.63;;;23.90;62.50;;;;;;5050953;28;20025;-37
2021/07/27 08:38:23;;;;;;;14.88;9.88;;;23.70;63.10;;;;;;5050346;28;20059;-37
2021/07/27 08:40:49;;;;;;;16.70;11.05;;;23.50;62.90;;;;;;5051894;28;20036;-38
2021/07/27 08:43:18;;;;;;;17.02;10.15;;;23.10;63.50;;;;;;5051831;28;20036;-38
2021/07/27 08:45:44;;;;;;;14.63;9.20;;;22.90;64.10;;;;;;5052377;28;20423;-36
2021/07/27 08:48:11;;;;;;;12.98;10.55;;;23.40;63.10;;;;;;5051825;28;20021;-37
2021/07/27 08:50:37;;;;;;;16.88;9.48;;;23.90;61.30;;;;;;5051482;28;20024;-37
2021/07/27 08:53:03;;;;;;;12.65;8.98;;;23.60;62.30;;;;;;5055139;28;20032;-36
2021/07/27 08:55:28;;;;;;;12.32;8.65;;;23.70;62.20;;;;;;5057625;28;20075;-36
2021/07/27 08:57:56;;;;;;;10.32;8.43;;;24.20;60.50;;;;;;5055650;28;20035;-36
2021/07/27 09:00:25;;;;;;;12.75;8.93;;;23.90;61.00;;;;;;5055722;28;20096;-36
2021/07/27 09:02:50;;;;;;;13.73;9.23;;;24.00;61.40;;;;;;5055560;28;20047;-36
2021/07/27 09:05:17;;;;;;;13.00;9.50;;;24.40;59.70;;;;;;5055531;28;20108;-38
2021/07/27 09:07:43;;;;;;;12.82;9.98;;;24.30;59.20;;;;;;5055688;28;20465;-38
2021/07/27 09:10:22;;;;;;;15.85;9.65;;;23.00;63.90;;;;;;5055515;28;20032;-37
2021/07/27 09:13:05;;;;;;;13.93;10.65;;;22.80;64.70;;;;;;5055848;28;20386;-36
2021/07/27 09:15:37;;;;;;;18.50;8.45;;;23.30;63.00;;;;;;5055645;28;20021;-36
2021/07/27 09:18:05;;;;;;;14.32;9.85;;;24.50;58.40;;;;;;5054671;28;20043;-37
2021/07/27 09:20:35;;;;;;;10.50;7.93;;;24.50;58.00;;;;;;5054155;28;20043;-38
2021/07/27 09:23:02;;;;;;;13.10;7.80;;;24.30;59.50;;;;;;5054751;28;20136;-36
2021/07/27 09:25:31;;;;;;;9.70;8.18;;;23.40;61.80;;;;;;5053550;28;20036;-36
2021/07/27 09:28:02;;;;;;;22.88;8.65;;;23.70;60.80;;;;;;5053626;28;20154;-37
2021/07/27 09:30:29;;;;;;;;;;;24.30;59.10;;;;;;5054868;28;20045;-37
2021/07/27 09:32:55;;;;;;;15.57;10.73;;;24.30;59.50;;;;;;5055578;28;20411;-38
2021/07/27 09:35:22;;;;;;;11.30;7.70;;;24.50;59.70;;;;;;5055449;28;20120;-38
2021/07/27 09:38:14;;;;;;;9.75;8.20;;;24.60;58.60;;;;;;5054753;28;20036;-38
2021/07/27 09:40:49;;;;;;;10.48;7.65;;;25.30;57.10;;;;;;5054633;28;20025;-38
2021/07/27 09:43:19;;;;;;;8.45;7.03;;;25.30;57.40;;;;;;5054621;28;20043;-37
2021/07/27 09:45:51;;;;;;;13.93;8.52;;;25.70;55.40;;;;;;5054913;28;20017;-38
2021/07/27 09:48:18;;;;;;;10.00;7.85;;;25.10;56.10;;;;;;5053446;28;20029;-38
2021/07/27 09:50:49;;;;;;;10.05;7.50;;;25.90;55.20;;;;;;5055113;28;20381;-36
2021/07/27 09:53:15;;;;;;;9.45;7.43;;;26.30;54.20;;;;;;5054043;28;20572;-37
2021/07/27 09:55:41;;;;;;;8.88;7.97;;;25.50;56.10;;;;;;5054336;28;20057;-36
2021/07/27 09:58:08;;;;;;;10.13;8.02;;;26.10;54.40;;;;;;5054225;28;20227;-36
2021/07/27 10:00:54;;;;;;;13.15;8.35;;;26.90;51.80;;;;;;5054407;28;20556;-37
2021/07/27 10:03:28;;;;;;;12.15;8.60;;;26.10;53.40;;;;;;5053846;28;20072;-37
2021/07/27 10:05:56;;;;;;;12.65;9.18;;;25.80;55.40;;;;;;5054272;28;20036;-37
2021/07/27 10:08:31;;;;;;;10.60;7.93;;;26.50;51.20;;;;;;5053700;28;20423;-38
2021/07/27 10:11:11;;;;;;;10.38;8.85;;;26.10;52.70;;;;;;5053456;28;20449;-37
2021/07/27 10:13:40;;;;;;;12.57;8.23;;;24.80;56.60;;;;;;5053746;28;20052;-38
2021/07/27 10:16:06;;;;;;;15.90;8.75;;;24.50;57.80;;;;;;5052319;28;20021;-40
2021/07/27 10:18:34;;;;;;;10.70;7.90;;;24.10;60.00;;;;;;5054169;28;20025;-36
2021/07/27 10:21:35;;;;;;;12.77;9.07;;;24.50;59.20;;;;;;5052953;28;20025;-37
2021/07/27 10:24:23;;;;;;;9.32;8.00;;;24.10;59.10;;;;;;5051859;28;20040;-38
2021/07/27 10:26:49;;;;;;;10.32;8.07;;;24.30;58.40;;;;;;5053643;28;20085;-36
2021/07/27 10:29:27;;;;;;;15.13;8.27;;;25.20;56.90;;;;;;5053792;28;20029;-37
2021/07/27 10:31:54;;;;;;;8.75;7.20;;;25.80;54.50;;;;;;5053788;28;20091;-37
2021/07/27 10:34:19;;;;;;;12.32;8.05;;;25.70;54.10;;;;;;5054023;28;20021;-36
2021/07/27 10:36:47;;;;;;;8.25;7.13;;;25.30;55.60;;;;;;5053272;28;20595;-36
2021/07/27 10:39:15;;;;;;;14.45;8.25;;;24.90;55.40;;;;;;5053772;28;20025;-37
2021/07/27 10:41:48;;;;;;;10.45;8.13;;;25.10;55.40;;;;;;5053599;28;20477;-36
2021/07/27 10:44:16;;;;;;;11.10;8.57;;;25.40;54.20;;;;;;5054559;28;20028;-37
2021/07/27 10:46:47;;;;;;;11.80;7.72;;;24.90;56.40;;;;;;5053923;28;20101;-37
2021/07/27 10:49:25;;;;;;;10.73;6.85;;;25.30;55.90;;;;;;5051777;28;20029;-37
2021/07/27 10:51:59;;;;;;;13.02;7.63;;;25.10;56.40;;;;;;5053340;28;20470;-37
2021/07/27 10:54:33;;;;;;;8.77;7.40;;;25.10;56.20;;;;;;5052367;28;20437;-37
2021/07/27 10:57:06;;;;;;;10.10;8.48;;;24.80;57.00;;;;;;5053687;28;20094;-36
2021/07/27 10:59:36;;;;;;;13.07;7.78;;;24.80;56.90;;;;;;5053339;28;20025;-36
2021/07/27 11:02:09;;;;;;;11.23;8.75;;;24.50;57.20;;;;;;5053664;28;20477;-36
2021/07/27 11:04:35;;;;;;;14.63;8.57;;;24.40;57.90;;;;;;5053433;28;20530;-37
2021/07/27 11:07:07;;;;;;;11.77;7.43;;;24.60;57.10;;;;;;5052864;28;20024;-36
2021/07/27 11:09:33;;;;;;;10.43;8.23;;;24.40;58.60;;;;;;5053158;28;20377;-37
2021/07/27 11:11:58;;;;;;;10.85;8.20;;;24.30;59.20;;;;;;5053182;28;20020;-37
2021/07/27 11:14:24;;;;;;;9.27;7.95;;;24.50;58.10;;;;;;5052024;28;20017;-37
2021/07/27 11:16:50;;;;;;;9.32;7.57;;;24.50;58.40;;;;;;5053315;28;20024;-38
2021/07/27 11:19:27;;;;;;;12.32;7.82;;;24.80;56.90;;;;;;5053412;28;20025;-38
2021/07/27 11:21:55;;;;;;;12.43;8.57;;;25.20;55.80;;;;;;5052997;28;20032;-38
2021/07/27 11:24:22;;;;;;;12.70;8.00;;;25.70;54.60;;;;;;5053270;28;20108;-36
2021/07/27 11:26:52;;;;;;;11.27;8.00;;;26.00;53.50;;;;;;5053020;28;20028;-38
2021/07/27 11:29:18;;;;;;;8.75;7.10;;;25.90;54.10;;;;;;5053373;28;20036;-36
2021/07/27 11:31:52;;;;;;;11.88;7.68;;;25.30;55.90;;;;;;5052728;28;20029;-39
2021/07/27 11:34:29;;;;;;;14.35;8.88;;;24.80;57.20;;;;;;5052716;28;20048;-37
2021/07/27 11:36:55;;;;;;;11.27;8.60;;;25.00;57.30;;;;;;5052837;28;20412;-37
2021/07/27 11:39:20;;;;;;;11.43;8.55;;;24.40;59.00;;;;;;5052966;28;20249;-36
2021/07/27 11:42:04;;;;;;;10.05;7.32;;;24.40;59.10;;;;;;5052849;28;20472;-37
2021/07/27 11:44:29;;;;;;;10.88;8.45;;;23.80;60.60;;;;;;5052627;28;20025;-36
2021/07/27 11:46:55;;;;;;;12.18;7.70;;;23.80;60.40;;;;;;5051106;28;20031;-36
2021/07/27 11:49:21;;;;;;;10.32;8.55;;;23.80;61.00;;;;;;5052796;28;20051;-36
2021/07/27 11:51:47;;;;;;;11.35;8.70;;;23.40;64.10;;;;;;5052185;28;20142;-36
2021/07/27 11:54:24;;;;;;;15.27;10.70;;;23.30;68.20;;;;;;5052669;28;20453;-36
2021/07/27 11:56:50;;;;;;;16.85;12.20;;;22.40;72.30;;;;;;5052756;28;20027;-37
2021/07/27 11:59:24;;;;;;;21.77;14.00;;;21.40;75.40;;;;;;5051520;28;20029;-36
2021/07/27 12:01:50;;;;;;;21.60;15.70;;;20.80;79.80;;;;;;5053387;28;20033;-39
2021/07/27 12:04:16;;;;;;;22.33;15.90;;;20.80;81.30;;;;;;5052675;28;20029;-37
2021/07/27 12:06:53;;;;;;;18.85;13.18;;;20.80;82.40;;;;;;5053006;28;20028;-37
2021/07/27 12:09:21;;;;;;;15.50;11.63;;;20.80;81.00;;;;;;5052627;28;20385;-37
2021/07/27 12:11:47;;;;;;;9.00;7.00;;;21.10;78.00;;;;;;5052693;28;20437;-37
2021/07/27 12:14:12;;;;;;;8.18;6.40;;;21.50;71.40;;;;;;5052467;28;20051;-37
2021/07/27 12:16:38;;;;;;;7.43;6.68;;;22.00;73.90;;;;;;5052434;28;20025;-38
2021/07/27 12:19:04;;;;;;;10.98;6.93;;;22.50;71.10;;;;;;5052533;28;20049;-37
2021/07/27 12:21:30;;;;;;;9.07;6.75;;;23.20;71.10;;;;;;5052164;28;20481;-37
2021/07/27 12:23:55;;;;;;;9.95;8.15;;;23.10;68.00;;;;;;5051890;28;20040;-37
2021/07/27 12:26:21;;;;;;;13.23;9.73;;;23.80;68.90;;;;;;5056224;28;20032;-37
2021/07/27 12:28:47;;;;;;;11.90;8.50;;;23.60;67.10;;;;;;5056083;28;20033;-36
2021/07/27 12:31:12;;;;;;;10.48;7.82;;;23.90;66.00;;;;;;5056226;28;20084;-38
2021/07/27 12:33:39;;;;;;;11.27;9.40;;;23.90;63.90;;;;;;5056237;28;20082;-37
2021/07/27 12:36:05;;;;;;;10.45;8.57;;;23.80;63.90;;;;;;5056126;28;20461;-36
2021/07/27 12:38:32;;;;;;;16.00;11.05;;;24.20;63.10;;;;;;5056233;28;20056;-36
2021/07/27 12:40:58;;;;;;;11.95;10.30;;;24.10;65.30;;;;;;5055916;28;20055;-36
2021/07/27 12:43:25;;;;;;;12.93;9.98;;;25.00;62.80;;;;;;5054264;28;20591;-36
2021/07/27 12:45:51;;;;;;;11.88;8.88;;;26.20;57.90;;;;;;5055768;28;20337;-36
2021/07/27 12:48:16;;;;;;;11.98;8.90;;;27.00;56.20;;;;;;5055434;28;20380;-36
2021/07/27 12:50:42;;;;;;;16.83;11.25;;;26.70;57.50;;;;;;5055184;28;20040;-36
2021/07/27 12:53:08;;;;;;;10.23;8.95;;;26.90;56.40;;;;;;5054943;28;20033;-36
2021/07/27 12:55:34;;;;;;;12.27;10.07;;;26.30;58.10;;;;;;5055137;28;20389;-36
2021/07/27 12:58:00;;;;;;;10.88;9.80;;;25.90;58.00;;;;;;5055206;28;20021;-36
2021/07/27 13:00:26;;;;;;;14.10;10.57;;;25.60;58.10;;;;;;5054747;28;20028;-37